createdAt,value
2017-11-27T00:00:14.252Z,1.53
2017-11-27T00:02:41.860Z,0.80
2017-11-27T00:05:10.164Z,1.80
2017-11-27T00:07:37.911Z,2.80
2017-11-27T00:10:06.203Z,1.33
2017-11-27T00:12:33.733Z,1.13
2017-11-27T00:15:01.260Z,1.80
2017-11-27T00:17:28.825Z,2.30
2017-11-27T00:19:56.361Z,1.47
2017-11-27T00:22:35.716Z,2.40
2017-11-27T00:25:03.243Z,2.07
2017-11-27T00:27:30.769Z,1.50
2017-11-27T00:29:58.288Z,2.90
2017-11-27T00:32:25.811Z,1.50
2017-11-27T00:34:54.108Z,1.20
2017-11-27T00:37:21.636Z,1.20
2017-11-27T00:39:49.957Z,1.47
2017-11-27T00:42:17.497Z,1.10
2017-11-27T00:44:45.051Z,1.03
2017-11-27T00:47:12.588Z,2.10
2017-11-27T00:49:41.652Z,1.70
2017-11-27T00:52:09.187Z,1.20
2017-11-27T00:54:36.729Z,1.00
2017-11-27T00:57:04.285Z,1.30
2017-11-27T00:59:31.816Z,1.50
2017-11-27T01:01:59.393Z,1.73
2017-11-27T01:04:27.683Z,1.33
2017-11-27T01:06:55.211Z,1.57
2017-11-27T01:09:22.761Z,1.80
2017-11-27T01:11:50.297Z,1.20
2017-11-27T01:14:17.852Z,1.10
2017-11-27T01:16:45.406Z,1.40
2017-11-27T01:19:12.971Z,1.00
2017-11-27T01:21:40.496Z,1.10
2017-11-27T01:24:08.811Z,2.17
2017-11-27T01:26:36.336Z,1.17
2017-11-27T01:29:03.867Z,1.00
2017-11-27T01:31:32.195Z,1.63
2017-11-27T01:33:59.733Z,1.30
2017-11-27T01:36:27.293Z,1.27
2017-11-27T01:38:54.825Z,1.50
2017-11-27T01:41:22.351Z,1.17
2017-11-27T01:43:49.899Z,1.30
2017-11-27T01:46:17.440Z,1.37
2017-11-27T01:48:44.987Z,1.87
2017-11-27T01:51:13.281Z,1.30
2017-11-27T01:53:40.866Z,1.43
2017-11-27T01:56:08.415Z,2.50
2017-11-27T01:58:35.952Z,4.27
2017-11-27T02:01:03.481Z,1.50
2017-11-27T02:03:31.009Z,1.00
2017-11-27T02:05:58.563Z,1.13
2017-11-27T02:08:26.097Z,1.90
2017-11-27T02:10:53.660Z,1.10
2017-11-27T02:13:21.187Z,1.47
2017-11-27T02:15:49.503Z,1.53
2017-11-27T02:18:17.040Z,2.43
2017-11-27T02:20:45.323Z,0.80
2017-11-27T02:23:12.879Z,1.30
2017-11-27T02:25:41.168Z,1.50
2017-11-27T02:28:08.704Z,1.47
2017-11-27T02:30:37.003Z,1.40
2017-11-27T02:33:04.563Z,1.90
2017-11-27T02:35:32.129Z,1.53
2017-11-27T02:37:59.651Z,1.57
2017-11-27T02:40:27.955Z,1.90
2017-11-27T02:42:55.485Z,1.70
2017-11-27T02:45:23.011Z,1.40
2017-11-27T02:47:50.569Z,1.77
2017-11-27T02:50:18.099Z,1.97
2017-11-27T02:52:45.630Z,2.60
2017-11-27T02:55:13.938Z,1.87
2017-11-27T02:57:41.460Z,1.20
2017-11-27T03:00:09.023Z,1.50
2017-11-27T03:02:36.549Z,1.77
2017-11-27T03:05:04.069Z,1.80
2017-11-27T03:07:31.608Z,1.67
2017-11-27T03:09:59.899Z,1.60
2017-11-27T03:12:27.456Z,2.30
2017-11-27T03:14:55.752Z,1.63
2017-11-27T03:17:23.322Z,1.13
2017-11-27T03:19:50.846Z,1.10
2017-11-27T03:22:19.147Z,1.70
2017-11-27T03:24:46.684Z,2.03
2017-11-27T03:27:14.982Z,2.37
2017-11-27T03:29:42.556Z,1.20
2017-11-27T03:32:10.095Z,0.80
2017-11-27T03:34:38.399Z,1.10
2017-11-27T03:37:05.947Z,1.90
2017-11-27T03:39:33.480Z,2.70
2017-11-27T03:42:03.451Z,1.37
2017-11-27T03:44:30.984Z,1.57
2017-11-27T03:46:58.564Z,1.20
2017-11-27T03:49:26.087Z,1.03
2017-11-27T03:51:53.619Z,1.73
2017-11-27T03:54:21.149Z,1.83
2017-11-27T03:56:48.686Z,1.10
2017-11-27T03:59:16.270Z,0.97
2017-11-27T04:01:43.791Z,1.27
2017-11-27T04:04:11.335Z,0.90
2017-11-27T04:06:39.629Z,1.20
2017-11-27T04:09:07.164Z,1.77
2017-11-27T04:11:35.492Z,1.63
2017-11-27T04:14:03.041Z,1.80
2017-11-27T04:16:30.631Z,1.60
2017-11-27T04:18:58.156Z,2.03
2017-11-27T04:21:25.690Z,0.93
2017-11-27T04:23:54.009Z,1.20
2017-11-27T04:26:21.541Z,5.13
2017-11-27T04:28:49.077Z,4.33
2017-11-27T04:31:17.372Z,6.63
2017-11-27T04:33:45.668Z,6.40
2017-11-27T04:36:13.240Z,7.10
2017-11-27T04:38:40.765Z,8.33
2017-11-27T04:41:09.060Z,5.40
2017-11-27T04:43:36.585Z,5.37
2017-11-27T04:46:04.115Z,3.57
2017-11-27T04:48:31.696Z,1.63
2017-11-27T04:50:59.224Z,5.33
2017-11-27T04:53:26.755Z,5.23
2017-11-27T04:55:54.295Z,4.57
2017-11-27T04:58:22.596Z,2.73
2017-11-27T05:00:50.148Z,5.03
2017-11-27T05:03:17.681Z,3.83
2017-11-27T05:05:45.241Z,6.40
2017-11-27T05:08:12.771Z,4.20
2017-11-27T05:10:40.297Z,7.60
2017-11-27T05:13:07.845Z,4.47
2017-11-27T05:15:35.381Z,2.23
2017-11-27T05:18:02.969Z,3.07
2017-11-27T05:20:30.509Z,2.80
2017-11-27T05:22:58.806Z,3.40
2017-11-27T05:25:26.345Z,3.10
2017-11-27T05:27:54.644Z,2.00
2017-11-27T05:30:22.196Z,5.20
2017-11-27T05:32:49.733Z,1.30
2017-11-27T05:35:17.297Z,2.93
2017-11-27T05:37:45.596Z,1.50
2017-11-27T05:40:13.147Z,1.40
2017-11-27T05:42:41.439Z,2.60
2017-11-27T05:45:09.025Z,2.00
2017-11-27T05:47:36.586Z,1.50
2017-11-27T05:50:04.113Z,2.60
2017-11-27T05:52:32.437Z,1.50
2017-11-27T05:54:59.976Z,1.53
2017-11-27T05:57:27.537Z,1.97
2017-11-27T05:59:55.059Z,2.40
2017-11-27T06:02:23.368Z,1.63
2017-11-27T06:04:50.933Z,4.80
2017-11-27T06:07:18.472Z,1.10
2017-11-27T06:09:46.006Z,1.40
2017-11-27T06:12:13.536Z,1.57
2017-11-27T06:14:41.075Z,2.00
2017-11-27T06:17:08.697Z,1.20
2017-11-27T06:19:36.996Z,1.97
2017-11-27T06:22:04.544Z,1.80
2017-11-27T06:24:32.087Z,3.10
2017-11-27T06:27:00.388Z,1.80
2017-11-27T06:29:27.953Z,1.73
2017-11-27T06:31:55.510Z,4.73
2017-11-27T06:34:23.080Z,2.07
2017-11-27T06:36:50.613Z,6.33
2017-11-27T06:39:18.925Z,5.43
2017-11-27T06:41:46.517Z,8.13
2017-11-27T06:44:14.051Z,4.03
2017-11-27T06:46:41.597Z,5.33
2017-11-27T06:49:09.153Z,3.73
2017-11-27T06:51:36.712Z,1.70
2017-11-27T06:54:04.269Z,10.10
2017-11-27T06:56:31.802Z,3.90
2017-11-27T06:59:00.140Z,3.37
2017-11-27T07:01:27.663Z,2.10
2017-11-27T07:03:55.193Z,2.27
2017-11-27T07:06:22.724Z,3.90
2017-11-27T07:08:50.248Z,8.50
2017-11-27T07:11:17.840Z,1.70
2017-11-27T07:13:45.364Z,2.10
2017-11-27T07:16:12.891Z,1.90
2017-11-27T07:18:40.425Z,2.60
2017-11-27T07:21:07.988Z,1.50
2017-11-27T07:23:35.547Z,5.17
2017-11-27T07:26:03.097Z,3.20
2017-11-27T07:28:30.657Z,3.90
2017-11-27T07:30:58.211Z,2.37
2017-11-27T07:33:25.769Z,2.20
2017-11-27T07:35:53.292Z,3.27
2017-11-27T07:38:27.437Z,2.77
2017-11-27T07:40:54.968Z,2.97
2017-11-27T07:43:23.265Z,1.93
2017-11-27T07:45:50.814Z,2.43
2017-11-27T07:48:18.342Z,1.47
2017-11-27T07:50:46.696Z,2.40
2017-11-27T07:53:14.237Z,2.53
2017-11-27T07:55:41.758Z,1.70
2017-11-27T07:58:10.054Z,1.50
2017-11-27T08:00:37.641Z,2.00
2017-11-27T08:03:05.212Z,3.10
2017-11-27T08:05:33.522Z,1.93
2017-11-27T08:08:01.829Z,1.47
2017-11-27T08:10:29.374Z,2.43
2017-11-27T08:12:57.665Z,2.47
2017-11-27T08:15:25.224Z,2.40
2017-11-27T08:17:52.760Z,3.97
2017-11-27T08:20:21.052Z,2.10
2017-11-27T08:22:49.372Z,1.50
2017-11-27T08:25:16.897Z,1.20
2017-11-27T08:27:44.476Z,2.87
2017-11-27T08:30:12.019Z,2.03
2017-11-27T08:32:39.577Z,1.57
2017-11-27T08:35:07.123Z,2.33
2017-11-27T08:37:35.415Z,2.43
2017-11-27T08:40:02.948Z,2.70
2017-11-27T08:42:31.247Z,1.87
2017-11-27T08:44:58.800Z,2.17
2017-11-27T08:47:27.097Z,1.77
2017-11-27T08:49:54.653Z,1.80
2017-11-27T08:52:22.180Z,2.43
2017-11-27T08:54:50.489Z,3.27
2017-11-27T08:57:18.052Z,2.97
2017-11-27T08:59:45.589Z,1.33
2017-11-27T09:02:13.920Z,2.00
2017-11-27T09:04:41.451Z,2.30
2017-11-27T09:07:08.977Z,2.67
2017-11-27T09:09:37.279Z,2.73
2017-11-27T09:12:04.809Z,2.33
2017-11-27T09:14:32.367Z,2.30
2017-11-27T09:16:59.926Z,1.53
2017-11-27T09:19:27.491Z,2.60
2017-11-27T09:21:55.805Z,1.93
2017-11-27T09:24:23.330Z,2.37
2017-11-27T09:26:51.629Z,2.23
2017-11-27T09:29:19.919Z,2.73
2017-11-27T09:31:47.481Z,2.70
2017-11-27T09:34:15.024Z,2.60
2017-11-27T09:36:43.324Z,1.77
2017-11-27T09:39:10.857Z,1.60
2017-11-27T09:41:39.156Z,1.90
2017-11-27T09:44:06.717Z,1.63
2017-11-27T09:46:34.291Z,1.20
2017-11-27T09:49:01.828Z,2.07
2017-11-27T09:51:29.379Z,3.70
2017-11-27T09:53:57.725Z,1.47
2017-11-27T09:56:25.325Z,1.40
2017-11-27T09:58:52.860Z,2.50
2017-11-27T10:01:21.167Z,1.57
2017-11-27T10:03:48.688Z,1.70
2017-11-27T10:06:16.225Z,1.40
2017-11-27T10:08:43.794Z,1.07
2017-11-27T10:11:11.336Z,1.50
2017-11-27T10:13:38.897Z,1.30
2017-11-27T10:16:06.450Z,1.80
2017-11-27T10:18:33.981Z,2.13
2017-11-27T10:21:01.512Z,1.30
2017-11-27T10:23:29.049Z,1.50
2017-11-27T10:25:56.615Z,1.63
2017-11-27T10:28:24.149Z,1.20
2017-11-27T10:30:51.677Z,1.10
2017-11-27T10:33:19.975Z,1.10
2017-11-27T10:35:47.516Z,1.00
2017-11-27T10:38:15.084Z,2.23
2017-11-27T10:40:42.637Z,1.60
2017-11-27T10:43:10.212Z,1.93
2017-11-27T10:45:38.524Z,1.60
2017-11-27T10:48:06.087Z,1.63
2017-11-27T10:50:33.649Z,1.30
2017-11-27T10:53:01.193Z,1.17
2017-11-27T10:55:28.740Z,1.10
2017-11-27T10:57:56.285Z,1.93
2017-11-27T11:00:23.838Z,3.80
2017-11-27T11:02:51.397Z,1.23
2017-11-27T11:05:18.935Z,1.10
2017-11-27T11:07:47.262Z,1.67
2017-11-27T11:10:14.788Z,1.57
2017-11-27T11:12:43.098Z,1.50
2017-11-27T11:15:10.668Z,1.83
2017-11-27T11:17:38.229Z,1.00
2017-11-27T11:20:05.801Z,1.87
2017-11-27T11:22:33.336Z,1.10
2017-11-27T11:25:00.896Z,1.10
2017-11-27T11:27:28.454Z,0.90
2017-11-27T11:29:55.997Z,0.90
2017-11-27T11:32:23.585Z,2.03
2017-11-27T11:34:51.121Z,1.30
2017-11-27T11:37:18.691Z,1.23
2017-11-27T11:39:47.254Z,1.17
2017-11-27T11:42:14.791Z,1.33
2017-11-27T11:44:43.101Z,1.40
2017-11-27T11:47:10.645Z,2.20
2017-11-27T11:49:38.986Z,1.17
2017-11-27T11:52:06.530Z,1.00
2017-11-27T11:54:34.084Z,1.47
2017-11-27T11:57:01.625Z,1.10
2017-11-27T11:59:29.155Z,2.80
2017-11-27T12:01:57.457Z,1.17
2017-11-27T12:04:25.013Z,1.27
2017-11-27T12:06:52.570Z,0.93
2017-11-27T12:09:20.105Z,1.57
2017-11-27T12:11:48.427Z,1.17
2017-11-27T12:14:15.943Z,1.53
2017-11-27T12:16:44.274Z,1.37
2017-11-27T12:19:11.819Z,2.60
2017-11-27T12:21:39.363Z,5.07
2017-11-27T12:24:06.911Z,7.43
2017-11-27T12:26:35.204Z,4.20
2017-11-27T12:29:03.860Z,11.93
2017-11-27T12:31:32.259Z,11.13
2017-11-27T12:33:59.800Z,9.93
2017-11-27T12:36:28.114Z,17.77
2017-11-27T12:38:55.645Z,12.10
2017-11-27T12:41:23.968Z,13.90
2017-11-27T12:43:51.505Z,16.07
2017-11-27T12:46:19.032Z,14.73
2017-11-27T12:48:46.628Z,35.77
2017-11-27T12:51:14.181Z,22.33
2017-11-27T12:53:41.815Z,18.83
2017-11-27T12:56:10.124Z,18.37
2017-11-27T12:58:37.684Z,18.00
2017-11-27T13:01:05.211Z,19.20
2017-11-27T13:03:32.744Z,16.03
2017-11-27T13:06:00.289Z,13.07
2017-11-27T13:08:27.885Z,16.73
2017-11-27T13:10:55.923Z,13.80
2017-11-27T13:13:23.476Z,19.83
2017-11-27T13:15:51.023Z,19.23
2017-11-27T13:18:18.560Z,13.67
2017-11-27T13:20:46.891Z,17.13
2017-11-27T13:23:14.422Z,14.67
2017-11-27T13:25:41.961Z,17.23
2017-11-27T13:28:10.256Z,13.20
2017-11-27T13:30:37.843Z,13.30
2017-11-27T13:33:05.406Z,13.53
2017-11-27T13:35:32.933Z,11.93
2017-11-27T13:38:00.461Z,9.33
2017-11-27T13:40:27.987Z,10.07
2017-11-27T13:42:55.539Z,20.30
2017-11-27T13:45:23.099Z,9.20
2017-11-27T13:47:50.656Z,14.27
2017-11-27T13:50:18.192Z,12.10
2017-11-27T13:52:45.730Z,10.33
2017-11-27T13:55:14.040Z,11.33
2017-11-27T13:57:41.608Z,12.70
2017-11-27T14:00:09.149Z,12.20
2017-11-27T14:02:36.689Z,10.07
2017-11-27T14:05:04.995Z,13.20
2017-11-27T14:07:32.536Z,10.10
2017-11-27T14:10:00.864Z,13.83
2017-11-27T14:12:28.417Z,12.07
2017-11-27T14:14:55.943Z,8.50
2017-11-27T14:17:23.532Z,9.70
2017-11-27T14:19:51.089Z,11.23
2017-11-27T14:22:18.621Z,5.87
2017-11-27T14:24:46.155Z,7.77
2017-11-27T14:27:13.721Z,8.30
2017-11-27T14:29:42.045Z,7.20
2017-11-27T14:32:09.597Z,6.90
2017-11-27T14:34:37.124Z,8.33
2017-11-27T14:37:05.418Z,9.27
2017-11-27T14:39:33.001Z,9.13
2017-11-27T14:42:00.547Z,8.10
2017-11-27T14:44:28.076Z,8.40
2017-11-27T14:46:56.386Z,6.20
2017-11-27T14:49:23.946Z,7.00
2017-11-27T14:51:51.477Z,5.63
2017-11-27T14:54:19.776Z,8.47
2017-11-27T14:56:47.312Z,5.07
2017-11-27T14:59:15.618Z,9.17
2017-11-27T15:01:43.183Z,6.93
2017-11-27T15:04:10.741Z,7.27
2017-11-27T15:06:38.272Z,6.10
2017-11-27T15:09:06.578Z,6.70
2017-11-27T15:11:34.113Z,7.23
2017-11-27T15:14:02.412Z,5.93
2017-11-27T15:16:30.028Z,4.50
2017-11-27T15:18:57.603Z,5.23
2017-11-27T15:21:25.964Z,7.10
2017-11-27T15:23:53.499Z,8.23
2017-11-27T15:26:21.034Z,7.97
2017-11-27T15:28:48.564Z,6.70
2017-11-27T15:31:16.967Z,14.23
2017-11-27T15:33:44.507Z,15.40
2017-11-27T15:36:12.842Z,17.60
2017-11-27T15:38:40.403Z,18.43
2017-11-27T15:41:08.005Z,17.10
2017-11-27T15:43:36.425Z,12.80
2017-11-27T15:46:04.069Z,12.90
2017-11-27T15:48:31.645Z,8.40
2017-11-27T15:50:59.212Z,13.23
2017-11-27T15:53:26.849Z,6.20
2017-11-27T15:55:54.390Z,7.67
2017-11-27T15:58:22.688Z,8.27
2017-11-27T16:00:50.273Z,7.67
2017-11-27T16:03:17.799Z,8.93
2017-11-27T16:05:46.121Z,8.23
2017-11-27T16:08:13.667Z,8.80
2017-11-27T16:10:41.192Z,8.77
2017-11-27T16:13:09.504Z,5.33
2017-11-27T16:15:37.049Z,7.50
2017-11-27T16:18:04.620Z,6.63
2017-11-27T16:20:32.148Z,9.00
2017-11-27T16:23:00.436Z,7.00
2017-11-27T16:25:27.973Z,4.80
2017-11-27T16:27:55.509Z,4.80
2017-11-27T16:30:24.069Z,3.77
2017-11-27T16:32:51.622Z,4.10
2017-11-27T16:35:19.197Z,6.73
2017-11-27T16:37:46.757Z,4.23
2017-11-27T16:40:14.332Z,3.67
2017-11-27T16:42:41.863Z,5.07
2017-11-27T16:45:09.403Z,11.93
2017-11-27T16:47:36.966Z,5.67
2017-11-27T16:50:04.500Z,4.00
2017-11-27T16:52:32.807Z,3.90
2017-11-27T16:55:00.357Z,2.50
2017-11-27T16:57:27.901Z,4.80
2017-11-27T16:59:56.198Z,4.07
2017-11-27T17:02:23.728Z,4.20
2017-11-27T17:04:51.723Z,3.80
2017-11-27T17:07:19.243Z,4.50
2017-11-27T17:09:46.801Z,2.63
2017-11-27T17:12:14.409Z,4.73
2017-11-27T17:14:41.944Z,5.00
2017-11-27T17:17:10.236Z,3.20
2017-11-27T17:19:37.779Z,4.07
2017-11-27T17:22:06.073Z,1.93
2017-11-27T17:24:34.396Z,4.63
2017-11-27T17:27:01.964Z,4.47
2017-11-27T17:29:29.563Z,3.37
2017-11-27T17:31:57.114Z,3.47
2017-11-27T17:34:25.415Z,3.67
2017-11-27T17:36:52.971Z,5.00
2017-11-27T17:39:21.287Z,4.67
2017-11-27T17:41:48.829Z,4.00
2017-11-27T17:44:16.401Z,3.90
2017-11-27T17:46:43.969Z,3.70
2017-11-27T17:49:11.508Z,2.90
2017-11-27T17:51:39.064Z,3.83
2017-11-27T17:54:06.601Z,6.83
2017-11-27T17:56:34.939Z,4.30
2017-11-27T17:59:02.498Z,3.90
2017-11-27T18:01:30.038Z,5.97
2017-11-27T18:03:57.602Z,5.30
2017-11-27T18:06:25.133Z,9.37
2017-11-27T18:08:52.696Z,9.97
2017-11-27T18:11:20.249Z,12.03
2017-11-27T18:13:47.898Z,14.40
2017-11-27T18:16:15.459Z,18.30
2017-11-27T18:18:43.757Z,16.13
2017-11-27T18:21:11.344Z,17.13
2017-11-27T18:23:40.030Z,19.10
2017-11-27T18:26:07.615Z,22.23
2017-11-27T18:28:35.912Z,18.07
2017-11-27T18:31:04.268Z,17.57
2017-11-27T18:33:31.804Z,18.43
2017-11-27T18:35:59.332Z,17.33
2017-11-27T18:38:28.668Z,20.73
2017-11-27T18:40:56.204Z,17.63
2017-11-27T18:43:23.815Z,21.23
2017-11-27T18:45:51.348Z,16.23
2017-11-27T18:48:18.889Z,17.47
2017-11-27T18:50:46.424Z,21.57
2017-11-27T18:53:18.920Z,21.03
2017-11-27T18:55:46.543Z,18.37
2017-11-27T18:58:14.860Z,19.63
2017-11-27T19:00:42.451Z,20.50
2017-11-27T19:03:10.005Z,16.90
2017-11-27T19:05:37.545Z,17.70
2017-11-27T19:08:05.126Z,23.60
2017-11-27T19:10:32.676Z,22.77
2017-11-27T19:13:00.231Z,15.23
2017-11-27T19:15:27.765Z,20.70
2017-11-27T19:17:56.060Z,15.20
2017-11-27T19:20:23.588Z,13.67
2017-11-27T19:22:51.126Z,14.43
2017-11-27T19:25:18.667Z,14.63
2017-11-27T19:27:46.204Z,18.37
2017-11-27T19:30:13.795Z,16.93
2017-11-27T19:32:41.350Z,17.90
2017-11-27T19:35:08.902Z,20.43
2017-11-27T19:37:36.471Z,12.63
2017-11-27T19:40:04.013Z,14.00
2017-11-27T19:42:31.616Z,17.60
2017-11-27T19:44:59.164Z,12.40
2017-11-27T19:47:27.747Z,17.13
2017-11-27T19:49:55.280Z,12.83
2017-11-27T19:52:22.819Z,14.27
2017-11-27T19:54:50.370Z,14.27
2017-11-27T19:57:18.664Z,13.00
2017-11-27T19:59:46.199Z,15.43
2017-11-27T20:02:14.500Z,15.20
2017-11-27T20:04:42.107Z,17.10
2017-11-27T20:07:09.665Z,15.53
2017-11-27T20:09:37.229Z,14.63
2017-11-27T20:12:04.809Z,13.83
2017-11-27T20:14:33.121Z,10.70
2017-11-27T20:17:00.696Z,12.43
2017-11-27T20:19:28.241Z,12.90
2017-11-27T20:21:55.776Z,11.40
2017-11-27T20:24:24.120Z,15.93
2017-11-27T20:26:51.704Z,12.27
2017-11-27T20:29:19.279Z,10.87
2017-11-27T20:31:47.596Z,12.27
2017-11-27T20:34:15.959Z,10.07
2017-11-27T20:36:43.544Z,12.53
2017-11-27T20:39:12.193Z,15.27
2017-11-27T20:41:40.500Z,12.13
2017-11-27T20:44:08.032Z,12.10
2017-11-27T20:46:35.600Z,11.13
2017-11-27T20:49:03.255Z,11.70
2017-11-27T20:51:30.801Z,9.27
2017-11-27T20:53:59.097Z,13.07
2017-11-27T20:56:26.629Z,10.47
2017-11-27T20:58:54.968Z,10.40
2017-11-27T21:01:22.494Z,7.30
2017-11-27T21:03:50.047Z,7.37
2017-11-27T21:06:18.351Z,8.93
2017-11-27T21:08:45.896Z,8.80
2017-11-27T21:11:13.436Z,6.77
2017-11-27T21:13:41.736Z,7.50
2017-11-27T21:16:09.260Z,8.40
2017-11-27T21:18:37.563Z,11.23
2017-11-27T21:21:05.115Z,9.97
2017-11-27T21:23:32.660Z,6.77
2017-11-27T21:26:00.969Z,7.77
2017-11-27T21:28:28.519Z,6.90
2017-11-27T21:30:56.064Z,11.40
2017-11-27T21:33:24.383Z,7.73
2017-11-27T21:35:51.918Z,7.20
2017-11-27T21:38:19.449Z,6.10
2017-11-27T21:40:46.971Z,7.57
2017-11-27T21:43:15.524Z,6.77
2017-11-27T21:45:43.063Z,6.27
2017-11-27T21:48:11.356Z,6.07
2017-11-27T21:50:38.909Z,5.33
2017-11-27T21:53:06.457Z,6.87
2017-11-27T21:55:34.751Z,6.40
2017-11-27T21:58:02.288Z,8.47
2017-11-27T22:00:30.589Z,7.67
2017-11-27T22:02:58.156Z,6.07
2017-11-27T22:05:25.696Z,6.20
2017-11-27T22:07:53.989Z,8.40
2017-11-27T22:10:21.525Z,6.23
2017-11-27T22:12:49.835Z,5.33
2017-11-27T22:15:17.383Z,4.90
2017-11-27T22:17:45.680Z,4.60
2017-11-27T22:20:13.276Z,4.60
2017-11-27T22:22:40.806Z,6.53
2017-11-27T22:25:09.365Z,4.63
2017-11-27T22:27:37.654Z,5.33
2017-11-27T22:30:05.189Z,5.83
2017-11-27T22:32:33.507Z,4.80
2017-11-27T22:35:01.039Z,3.60
2017-11-27T22:37:28.594Z,5.30
2017-11-27T22:39:56.888Z,6.07
2017-11-27T22:42:24.441Z,5.70
2017-11-27T22:44:52.032Z,4.00
2017-11-27T22:47:20.343Z,4.13
2017-11-27T22:49:47.879Z,4.00
2017-11-27T22:52:15.403Z,4.30
2017-11-27T22:54:43.820Z,9.27
2017-11-27T22:57:11.377Z,5.70
2017-11-27T22:59:38.906Z,5.20
2017-11-27T23:02:06.436Z,3.90
2017-11-27T23:04:34.742Z,4.47
2017-11-27T23:07:02.277Z,3.70
2017-11-27T23:09:30.606Z,3.10
2017-11-27T23:11:58.140Z,3.50
2017-11-27T23:14:25.687Z,4.00
2017-11-27T23:16:53.980Z,4.03
2017-11-27T23:19:21.511Z,3.50
2017-11-27T23:21:49.809Z,3.20
2017-11-27T23:24:17.343Z,4.50
2017-11-27T23:26:45.664Z,3.10
2017-11-27T23:29:13.197Z,3.83
2017-11-27T23:31:41.507Z,2.97
2017-11-27T23:34:09.060Z,3.50
2017-11-27T23:36:36.593Z,3.13
2017-11-27T23:39:04.884Z,4.10
2017-11-27T23:41:32.416Z,3.00
2017-11-27T23:44:00.751Z,4.70
2017-11-27T23:46:28.294Z,3.10
2017-11-27T23:48:55.829Z,3.30
2017-11-27T23:51:23.368Z,3.20
2017-11-27T23:53:51.672Z,3.57
2017-11-27T23:56:19.229Z,2.03
2017-11-27T23:58:46.755Z,3.10
